sensor_id;sensor_type;location;lat;lon;timestamp;P1;durP1;ratioP1;P2;durP2;ratioP2
52041;SDS011;38052;45.944;13.624;2024-02-23T00:00:59;5.47;;;1.80;;
52041;SDS011;38052;45.944;13.624;2024-02-23T00:03:25;3.10;;;1.35;;
52041;SDS011;38052;45.944;13.624;2024-02-23T00:05:52;4.88;;;1.50;;
52041;SDS011;38052;45.944;13.624;2024-02-23T00:08:19;5.90;;;1.98;;
52041;SDS011;38052;45.944;13.624;2024-02-23T00:10:45;4.82;;;1.88;;
52041;SDS011;38052;45.944;13.624;2024-02-23T00:13:12;8.98;;;2.22;;
52041;SDS011;38052;45.944;13.624;2024-02-23T00:15:38;4.72;;;1.95;;
52041;SDS011;38052;45.944;13.624;2024-02-23T00:18:04;4.45;;;1.55;;
52041;SDS011;38052;45.944;13.624;2024-02-23T00:20:31;7.95;;;1.88;;
52041;SDS011;38052;45.944;13.624;2024-02-23T00:22:58;5.45;;;1.63;;
52041;SDS011;38052;45.944;13.624;2024-02-23T00:25:24;3.58;;;1.13;;
52041;SDS011;38052;45.944;13.624;2024-02-23T00:27:51;4.65;;;1.60;;
52041;SDS011;38052;45.944;13.624;2024-02-23T00:30:17;7.15;;;1.67;;
52041;SDS011;38052;45.944;13.624;2024-02-23T00:32:44;6.18;;;1.95;;
52041;SDS011;38052;45.944;13.624;2024-02-23T00:35:10;4.45;;;2.05;;
52041;SDS011;38052;45.944;13.624;2024-02-23T00:37:37;4.43;;;1.50;;
52041;SDS011;38052;45.944;13.624;2024-02-23T00:40:04;4.38;;;1.90;;
52041;SDS011;38052;45.944;13.624;2024-02-23T00:42:30;3.65;;;1.88;;
52041;SDS011;38052;45.944;13.624;2024-02-23T00:44:57;6.47;;;2.55;;
52041;SDS011;38052;45.944;13.624;2024-02-23T00:47:23;9.15;;;2.63;;
52041;SDS011;38052;45.944;13.624;2024-02-23T00:49:50;5.63;;;1.88;;
52041;SDS011;38052;45.944;13.624;2024-02-23T00:52:17;4.07;;;2.10;;
52041;SDS011;38052;45.944;13.624;2024-02-23T00:54:44;6.45;;;2.47;;
52041;SDS011;38052;45.944;13.624;2024-02-23T00:57:10;6.57;;;2.22;;
52041;SDS011;38052;45.944;13.624;2024-02-23T00:59:37;5.72;;;2.70;;
52041;SDS011;38052;45.944;13.624;2024-02-23T01:02:03;5.22;;;1.85;;
52041;SDS011;38052;45.944;13.624;2024-02-23T01:04:30;8.63;;;2.47;;
52041;SDS011;38052;45.944;13.624;2024-02-23T01:06:57;8.88;;;2.20;;
52041;SDS011;38052;45.944;13.624;2024-02-23T01:09:23;6.15;;;2.42;;
52041;SDS011;38052;45.944;13.624;2024-02-23T01:11:50;3.65;;;1.60;;
52041;SDS011;38052;45.944;13.624;2024-02-23T01:14:16;4.40;;;2.13;;
52041;SDS011;38052;45.944;13.624;2024-02-23T01:16:43;4.53;;;2.25;;
52041;SDS011;38052;45.944;13.624;2024-02-23T01:19:10;5.55;;;1.70;;
52041;SDS011;38052;45.944;13.624;2024-02-23T01:21:37;5.40;;;2.08;;
52041;SDS011;38052;45.944;13.624;2024-02-23T01:24:03;4.22;;;1.80;;
52041;SDS011;38052;45.944;13.624;2024-02-23T01:26:30;5.53;;;3.38;;
52041;SDS011;38052;45.944;13.624;2024-02-23T01:28:56;5.75;;;2.30;;
52041;SDS011;38052;45.944;13.624;2024-02-23T01:31:23;4.95;;;2.50;;
52041;SDS011;38052;45.944;13.624;2024-02-23T01:33:49;4.97;;;2.30;;
52041;SDS011;38052;45.944;13.624;2024-02-23T01:36:16;4.80;;;2.70;;
52041;SDS011;38052;45.944;13.624;2024-02-23T01:38:43;4.65;;;1.98;;
52041;SDS011;38052;45.944;13.624;2024-02-23T01:41:09;3.50;;;1.67;;
52041;SDS011;38052;45.944;13.624;2024-02-23T01:43:37;3.78;;;1.88;;
52041;SDS011;38052;45.944;13.624;2024-02-23T01:46:03;3.08;;;1.90;;
52041;SDS011;38052;45.944;13.624;2024-02-23T01:48:31;3.92;;;2.17;;
52041;SDS011;38052;45.944;13.624;2024-02-23T01:50:58;3.47;;;1.77;;
52041;SDS011;38052;45.944;13.624;2024-02-23T01:53:24;5.45;;;2.05;;
52041;SDS011;38052;45.944;13.624;2024-02-23T01:55:51;9.32;;;1.95;;
52041;SDS011;38052;45.944;13.624;2024-02-23T01:58:19;4.65;;;1.75;;
52041;SDS011;38052;45.944;13.624;2024-02-23T02:00:46;4.45;;;1.42;;
52041;SDS011;38052;45.944;13.624;2024-02-23T02:03:12;2.97;;;1.02;;
52041;SDS011;38052;45.944;13.624;2024-02-23T02:05:39;3.90;;;1.33;;
52041;SDS011;38052;45.944;13.624;2024-02-23T02:08:06;4.50;;;1.52;;
52041;SDS011;38052;45.944;13.624;2024-02-23T02:10:32;10.25;;;2.38;;
52041;SDS011;38052;45.944;13.624;2024-02-23T02:13:02;4.85;;;1.73;;
52041;SDS011;38052;45.944;13.624;2024-02-23T02:15:29;6.68;;;2.35;;
52041;SDS011;38052;45.944;13.624;2024-02-23T02:17:56;3.65;;;1.60;;
52041;SDS011;38052;45.944;13.624;2024-02-23T02:20:23;4.85;;;2.17;;
52041;SDS011;38052;45.944;13.624;2024-02-23T02:22:50;5.18;;;2.25;;
52041;SDS011;38052;45.944;13.624;2024-02-23T02:25:17;5.22;;;2.08;;
52041;SDS011;38052;45.944;13.624;2024-02-23T02:27:44;2.55;;;1.35;;
52041;SDS011;38052;45.944;13.624;2024-02-23T02:30:13;4.57;;;1.73;;
52041;SDS011;38052;45.944;13.624;2024-02-23T02:32:40;6.70;;;1.92;;
52041;SDS011;38052;45.944;13.624;2024-02-23T02:35:06;3.25;;;1.60;;
52041;SDS011;38052;45.944;13.624;2024-02-23T02:37:33;4.20;;;2.03;;
52041;SDS011;38052;45.944;13.624;2024-02-23T02:40:00;4.47;;;1.60;;
52041;SDS011;38052;45.944;13.624;2024-02-23T02:42:28;3.97;;;1.92;;
52041;SDS011;38052;45.944;13.624;2024-02-23T02:44:54;5.07;;;1.45;;
52041;SDS011;38052;45.944;13.624;2024-02-23T02:47:21;2.83;;;1.67;;
52041;SDS011;38052;45.944;13.624;2024-02-23T02:49:48;3.63;;;1.60;;
52041;SDS011;38052;45.944;13.624;2024-02-23T02:52:14;4.38;;;1.42;;
52041;SDS011;38052;45.944;13.624;2024-02-23T02:54:40;4.35;;;2.28;;
52041;SDS011;38052;45.944;13.624;2024-02-23T02:57:06;2.35;;;1.48;;
52041;SDS011;38052;45.944;13.624;2024-02-23T02:59:36;4.47;;;2.40;;
52041;SDS011;38052;45.944;13.624;2024-02-23T03:02:02;3.60;;;1.60;;
52041;SDS011;38052;45.944;13.624;2024-02-23T03:04:29;2.95;;;1.75;;
52041;SDS011;38052;45.944;13.624;2024-02-23T03:06:56;5.10;;;1.60;;
52041;SDS011;38052;45.944;13.624;2024-02-23T03:09:23;4.65;;;1.58;;
52041;SDS011;38052;45.944;13.624;2024-02-23T03:11:49;4.80;;;2.05;;
52041;SDS011;38052;45.944;13.624;2024-02-23T03:14:16;2.78;;;1.45;;
52041;SDS011;38052;45.944;13.624;2024-02-23T03:16:43;4.15;;;1.25;;
52041;SDS011;38052;45.944;13.624;2024-02-23T03:19:12;3.85;;;1.63;;
52041;SDS011;38052;45.944;13.624;2024-02-23T03:21:39;1.98;;;1.23;;
52041;SDS011;38052;45.944;13.624;2024-02-23T03:24:05;2.92;;;1.40;;
52041;SDS011;38052;45.944;13.624;2024-02-23T03:26:32;2.83;;;1.48;;
52041;SDS011;38052;45.944;13.624;2024-02-23T03:28:58;2.47;;;1.50;;
52041;SDS011;38052;45.944;13.624;2024-02-23T03:31:25;4.32;;;1.42;;
52041;SDS011;38052;45.944;13.624;2024-02-23T03:33:52;3.53;;;1.33;;
52041;SDS011;38052;45.944;13.624;2024-02-23T03:36:19;4.25;;;1.48;;
52041;SDS011;38052;45.944;13.624;2024-02-23T03:38:46;5.90;;;1.35;;
52041;SDS011;38052;45.944;13.624;2024-02-23T03:41:13;3.13;;;1.63;;
52041;SDS011;38052;45.944;13.624;2024-02-23T03:43:39;5.53;;;1.75;;
52041;SDS011;38052;45.944;13.624;2024-02-23T03:46:06;9.02;;;2.13;;
52041;SDS011;38052;45.944;13.624;2024-02-23T03:48:32;5.50;;;1.90;;
52041;SDS011;38052;45.944;13.624;2024-02-23T03:50:59;2.35;;;1.30;;
52041;SDS011;38052;45.944;13.624;2024-02-23T03:53:25;3.53;;;2.65;;
52041;SDS011;38052;45.944;13.624;2024-02-23T03:55:52;6.18;;;2.20;;
52041;SDS011;38052;45.944;13.624;2024-02-23T03:58:19;5.80;;;3.15;;
52041;SDS011;38052;45.944;13.624;2024-02-23T04:00:46;4.53;;;2.47;;
52041;SDS011;38052;45.944;13.624;2024-02-23T04:03:13;6.07;;;4.03;;
52041;SDS011;38052;45.944;13.624;2024-02-23T04:05:40;4.30;;;2.10;;
52041;SDS011;38052;45.944;13.624;2024-02-23T04:08:06;5.35;;;2.92;;
52041;SDS011;38052;45.944;13.624;2024-02-23T04:10:33;5.18;;;3.05;;
52041;SDS011;38052;45.944;13.624;2024-02-23T04:13:00;2.67;;;1.67;;
52041;SDS011;38052;45.944;13.624;2024-02-23T04:15:26;4.28;;;2.10;;
52041;SDS011;38052;45.944;13.624;2024-02-23T04:17:52;5.68;;;2.80;;
52041;SDS011;38052;45.944;13.624;2024-02-23T04:20:18;2.40;;;1.63;;
52041;SDS011;38052;45.944;13.624;2024-02-23T04:22:45;2.28;;;1.48;;
52041;SDS011;38052;45.944;13.624;2024-02-23T04:25:11;3.38;;;1.90;;
52041;SDS011;38052;45.944;13.624;2024-02-23T04:27:38;3.80;;;1.45;;
52041;SDS011;38052;45.944;13.624;2024-02-23T04:30:04;2.95;;;1.70;;
52041;SDS011;38052;45.944;13.624;2024-02-23T04:32:31;5.20;;;1.67;;
52041;SDS011;38052;45.944;13.624;2024-02-23T04:34:57;3.65;;;1.70;;
52041;SDS011;38052;45.944;13.624;2024-02-23T04:37:24;3.90;;;1.95;;
52041;SDS011;38052;45.944;13.624;2024-02-23T04:39:50;3.63;;;1.92;;
52041;SDS011;38052;45.944;13.624;2024-02-23T04:42:17;7.32;;;1.80;;
52041;SDS011;38052;45.944;13.624;2024-02-23T04:44:43;2.78;;;1.27;;
52041;SDS011;38052;45.944;13.624;2024-02-23T04:47:09;2.28;;;1.42;;
52041;SDS011;38052;45.944;13.624;2024-02-23T04:49:36;2.22;;;1.48;;
52041;SDS011;38052;45.944;13.624;2024-02-23T04:52:04;4.38;;;2.08;;
52041;SDS011;38052;45.944;13.624;2024-02-23T04:54:31;3.58;;;1.90;;
52041;SDS011;38052;45.944;13.624;2024-02-23T04:56:57;4.30;;;1.77;;
52041;SDS011;38052;45.944;13.624;2024-02-23T04:59:24;2.83;;;1.92;;
52041;SDS011;38052;45.944;13.624;2024-02-23T05:01:51;2.72;;;1.45;;
52041;SDS011;38052;45.944;13.624;2024-02-23T05:04:17;5.00;;;1.75;;
52041;SDS011;38052;45.944;13.624;2024-02-23T05:06:44;5.15;;;1.33;;
52041;SDS011;38052;45.944;13.624;2024-02-23T05:09:10;4.47;;;1.60;;
52041;SDS011;38052;45.944;13.624;2024-02-23T05:11:37;4.82;;;1.65;;
52041;SDS011;38052;45.944;13.624;2024-02-23T05:14:03;3.08;;;1.30;;
52041;SDS011;38052;45.944;13.624;2024-02-23T05:16:30;5.38;;;1.25;;
52041;SDS011;38052;45.944;13.624;2024-02-23T05:18:57;3.47;;;1.75;;
52041;SDS011;38052;45.944;13.624;2024-02-23T05:21:23;2.35;;;1.08;;
52041;SDS011;38052;45.944;13.624;2024-02-23T05:23:50;5.10;;;1.40;;
52041;SDS011;38052;45.944;13.624;2024-02-23T05:26:17;6.38;;;1.58;;
52041;SDS011;38052;45.944;13.624;2024-02-23T05:28:44;5.90;;;1.50;;
52041;SDS011;38052;45.944;13.624;2024-02-23T05:31:11;5.72;;;1.80;;
52041;SDS011;38052;45.944;13.624;2024-02-23T05:33:37;4.90;;;1.50;;
52041;SDS011;38052;45.944;13.624;2024-02-23T05:36:04;5.70;;;0.90;;
52041;SDS011;38052;45.944;13.624;2024-02-23T05:38:30;2.80;;;1.50;;
52041;SDS011;38052;45.944;13.624;2024-02-23T05:40:57;3.75;;;1.38;;
52041;SDS011;38052;45.944;13.624;2024-02-23T05:43:24;3.92;;;1.35;;
52041;SDS011;38052;45.944;13.624;2024-02-23T05:45:51;5.78;;;1.23;;
52041;SDS011;38052;45.944;13.624;2024-02-23T05:48:17;2.22;;;1.25;;
52041;SDS011;38052;45.944;13.624;2024-02-23T05:50:44;4.65;;;1.42;;
52041;SDS011;38052;45.944;13.624;2024-02-23T05:53:10;4.63;;;1.25;;
52041;SDS011;38052;45.944;13.624;2024-02-23T05:55:37;3.22;;;1.02;;
52041;SDS011;38052;45.944;13.624;2024-02-23T05:58:04;3.80;;;1.08;;
52041;SDS011;38052;45.944;13.624;2024-02-23T06:00:31;2.67;;;1.20;;
52041;SDS011;38052;45.944;13.624;2024-02-23T06:02:57;2.92;;;1.42;;
52041;SDS011;38052;45.944;13.624;2024-02-23T06:05:24;1.88;;;0.90;;
52041;SDS011;38052;45.944;13.624;2024-02-23T06:07:50;3.50;;;1.27;;
52041;SDS011;38052;45.944;13.624;2024-02-23T06:10:16;3.67;;;0.95;;
52041;SDS011;38052;45.944;13.624;2024-02-23T06:12:43;3.22;;;1.50;;
52041;SDS011;38052;45.944;13.624;2024-02-23T06:15:10;3.15;;;0.95;;
52041;SDS011;38052;45.944;13.624;2024-02-23T06:17:37;5.53;;;0.82;;
52041;SDS011;38052;45.944;13.624;2024-02-23T06:20:05;4.80;;;0.80;;
52041;SDS011;38052;45.944;13.624;2024-02-23T06:22:35;2.22;;;0.90;;
52041;SDS011;38052;45.944;13.624;2024-02-23T06:25:01;2.20;;;0.93;;
52041;SDS011;38052;45.944;13.624;2024-02-23T06:27:28;2.70;;;1.02;;
52041;SDS011;38052;45.944;13.624;2024-02-23T06:29:55;1.20;;;0.80;;
52041;SDS011;38052;45.944;13.624;2024-02-23T06:32:21;1.98;;;0.80;;
52041;SDS011;38052;45.944;13.624;2024-02-23T06:34:47;2.80;;;0.85;;
52041;SDS011;38052;45.944;13.624;2024-02-23T06:37:13;3.08;;;1.00;;
52041;SDS011;38052;45.944;13.624;2024-02-23T06:39:40;2.03;;;0.70;;
52041;SDS011;38052;45.944;13.624;2024-02-23T06:42:07;2.88;;;1.00;;
52041;SDS011;38052;45.944;13.624;2024-02-23T06:44:33;1.90;;;0.80;;
52041;SDS011;38052;45.944;13.624;2024-02-23T06:47:00;2.67;;;1.08;;
52041;SDS011;38052;45.944;13.624;2024-02-23T06:49:26;1.38;;;0.60;;
52041;SDS011;38052;45.944;13.624;2024-02-23T06:51:53;1.58;;;0.77;;
52041;SDS011;38052;45.944;13.624;2024-02-23T06:54:19;3.85;;;0.90;;
52041;SDS011;38052;45.944;13.624;2024-02-23T06:56:46;3.05;;;0.77;;
52041;SDS011;38052;45.944;13.624;2024-02-23T06:59:13;1.95;;;0.80;;
52041;SDS011;38052;45.944;13.624;2024-02-23T07:01:50;2.55;;;1.13;;
52041;SDS011;38052;45.944;13.624;2024-02-23T07:04:16;3.10;;;1.08;;
52041;SDS011;38052;45.944;13.624;2024-02-23T07:06:42;4.28;;;0.90;;
52041;SDS011;38052;45.944;13.624;2024-02-23T07:09:09;1.42;;;0.70;;
52041;SDS011;38052;45.944;13.624;2024-02-23T07:11:36;1.98;;;0.63;;
52041;SDS011;38052;45.944;13.624;2024-02-23T07:14:02;2.25;;;0.85;;
52041;SDS011;38052;45.944;13.624;2024-02-23T07:16:29;2.65;;;0.98;;
52041;SDS011;38052;45.944;13.624;2024-02-23T07:18:55;2.65;;;0.50;;
52041;SDS011;38052;45.944;13.624;2024-02-23T07:21:21;1.52;;;0.60;;
52041;SDS011;38052;45.944;13.624;2024-02-23T07:23:48;2.55;;;0.60;;
52041;SDS011;38052;45.944;13.624;2024-02-23T07:26:15;1.80;;;0.75;;
52041;SDS011;38052;45.944;13.624;2024-02-23T07:28:42;4.57;;;0.52;;
52041;SDS011;38052;45.944;13.624;2024-02-23T07:31:09;6.30;;;1.00;;
52041;SDS011;38052;45.944;13.624;2024-02-23T07:33:37;3.30;;;1.40;;
52041;SDS011;38052;45.944;13.624;2024-02-23T07:36:04;2.72;;;0.60;;
52041;SDS011;38052;45.944;13.624;2024-02-23T07:38:30;2.88;;;0.88;;
52041;SDS011;38052;45.944;13.624;2024-02-23T07:40:57;3.78;;;0.98;;
52041;SDS011;38052;45.944;13.624;2024-02-23T07:43:24;5.00;;;0.80;;
52041;SDS011;38052;45.944;13.624;2024-02-23T07:45:51;2.78;;;0.77;;
52041;SDS011;38052;45.944;13.624;2024-02-23T07:48:18;6.88;;;0.95;;
52041;SDS011;38052;45.944;13.624;2024-02-23T07:50:45;3.58;;;1.00;;
52041;SDS011;38052;45.944;13.624;2024-02-23T07:53:11;5.18;;;1.15;;
52041;SDS011;38052;45.944;13.624;2024-02-23T07:55:38;3.40;;;1.17;;
52041;SDS011;38052;45.944;13.624;2024-02-23T07:58:04;4.78;;;1.30;;
52041;SDS011;38052;45.944;13.624;2024-02-23T08:00:31;2.83;;;1.30;;
52041;SDS011;38052;45.944;13.624;2024-02-23T08:02:59;5.30;;;1.10;;
52041;SDS011;38052;45.944;13.624;2024-02-23T08:05:26;3.70;;;1.73;;
52041;SDS011;38052;45.944;13.624;2024-02-23T08:07:52;5.18;;;1.88;;
52041;SDS011;38052;45.944;13.624;2024-02-23T08:10:19;4.03;;;1.20;;
52041;SDS011;38052;45.944;13.624;2024-02-23T08:12:46;4.35;;;1.38;;
52041;SDS011;38052;45.944;13.624;2024-02-23T08:15:12;3.75;;;1.48;;
52041;SDS011;38052;45.944;13.624;2024-02-23T08:17:39;5.53;;;1.33;;
52041;SDS011;38052;45.944;13.624;2024-02-23T08:20:05;5.18;;;1.90;;
52041;SDS011;38052;45.944;13.624;2024-02-23T08:22:32;4.68;;;1.58;;
52041;SDS011;38052;45.944;13.624;2024-02-23T08:24:58;4.60;;;1.52;;
52041;SDS011;38052;45.944;13.624;2024-02-23T08:27:24;4.65;;;1.83;;
52041;SDS011;38052;45.944;13.624;2024-02-23T08:29:51;4.10;;;1.58;;
52041;SDS011;38052;45.944;13.624;2024-02-23T08:32:18;4.20;;;1.40;;
52041;SDS011;38052;45.944;13.624;2024-02-23T08:34:44;2.85;;;0.88;;
52041;SDS011;38052;45.944;13.624;2024-02-23T08:37:11;3.92;;;1.30;;
52041;SDS011;38052;45.944;13.624;2024-02-23T08:39:37;8.70;;;2.17;;
52041;SDS011;38052;45.944;13.624;2024-02-23T08:42:04;3.92;;;1.92;;
52041;SDS011;38052;45.944;13.624;2024-02-23T08:44:30;5.18;;;2.55;;
52041;SDS011;38052;45.944;13.624;2024-02-23T08:46:57;4.60;;;1.63;;
52041;SDS011;38052;45.944;13.624;2024-02-23T08:49:24;4.20;;;1.65;;
52041;SDS011;38052;45.944;13.624;2024-02-23T08:51:51;4.40;;;1.73;;
52041;SDS011;38052;45.944;13.624;2024-02-23T08:54:18;5.45;;;1.35;;
52041;SDS011;38052;45.944;13.624;2024-02-23T08:56:45;4.38;;;2.40;;
52041;SDS011;38052;45.944;13.624;2024-02-23T08:59:11;5.82;;;1.65;;
52041;SDS011;38052;45.944;13.624;2024-02-23T09:01:38;7.80;;;1.58;;
52041;SDS011;38052;45.944;13.624;2024-02-23T09:04:05;6.38;;;2.45;;
52041;SDS011;38052;45.944;13.624;2024-02-23T09:06:31;3.33;;;1.55;;
52041;SDS011;38052;45.944;13.624;2024-02-23T09:08:58;5.40;;;1.88;;
52041;SDS011;38052;45.944;13.624;2024-02-23T09:11:24;4.93;;;1.58;;
52041;SDS011;38052;45.944;13.624;2024-02-23T09:13:51;3.45;;;1.63;;
52041;SDS011;38052;45.944;13.624;2024-02-23T09:16:17;3.85;;;1.88;;
52041;SDS011;38052;45.944;13.624;2024-02-23T09:18:44;4.53;;;1.83;;
52041;SDS011;38052;45.944;13.624;2024-02-23T09:21:10;4.45;;;1.42;;
52041;SDS011;38052;45.944;13.624;2024-02-23T09:23:36;5.93;;;1.90;;
52041;SDS011;38052;45.944;13.624;2024-02-23T09:26:08;5.90;;;1.92;;
52041;SDS011;38052;45.944;13.624;2024-02-23T09:28:34;9.70;;;2.55;;
52041;SDS011;38052;45.944;13.624;2024-02-23T09:31:01;4.57;;;1.80;;
52041;SDS011;38052;45.944;13.624;2024-02-23T09:33:28;5.25;;;1.45;;
52041;SDS011;38052;45.944;13.624;2024-02-23T09:35:55;3.58;;;1.65;;
52041;SDS011;38052;45.944;13.624;2024-02-23T09:38:21;4.45;;;1.65;;
52041;SDS011;38052;45.944;13.624;2024-02-23T09:40:49;8.32;;;2.28;;
52041;SDS011;38052;45.944;13.624;2024-02-23T09:43:16;5.97;;;1.73;;
52041;SDS011;38052;45.944;13.624;2024-02-23T09:45:42;7.65;;;2.40;;
52041;SDS011;38052;45.944;13.624;2024-02-23T09:48:09;5.60;;;2.05;;
52041;SDS011;38052;45.944;13.624;2024-02-23T09:50:37;3.65;;;1.83;;
52041;SDS011;38052;45.944;13.624;2024-02-23T09:53:03;5.32;;;1.92;;
52041;SDS011;38052;45.944;13.624;2024-02-23T09:55:31;7.13;;;2.20;;
52041;SDS011;38052;45.944;13.624;2024-02-23T09:57:57;5.93;;;2.03;;
52041;SDS011;38052;45.944;13.624;2024-02-23T10:00:24;8.00;;;1.85;;
52041;SDS011;38052;45.944;13.624;2024-02-23T10:02:51;4.88;;;1.50;;
52041;SDS011;38052;45.944;13.624;2024-02-23T10:05:18;5.25;;;2.17;;
52041;SDS011;38052;45.944;13.624;2024-02-23T10:07:45;6.38;;;2.47;;
52041;SDS011;38052;45.944;13.624;2024-02-23T10:10:11;4.18;;;2.03;;
52041;SDS011;38052;45.944;13.624;2024-02-23T10:12:38;5.63;;;1.38;;
52041;SDS011;38052;45.944;13.624;2024-02-23T10:15:04;9.13;;;1.63;;
52041;SDS011;38052;45.944;13.624;2024-02-23T10:17:31;10.35;;;2.10;;
52041;SDS011;38052;45.944;13.624;2024-02-23T10:19:59;5.53;;;2.15;;
52041;SDS011;38052;45.944;13.624;2024-02-23T10:22:29;4.45;;;1.95;;
52041;SDS011;38052;45.944;13.624;2024-02-23T10:24:56;5.55;;;2.22;;
52041;SDS011;38052;45.944;13.624;2024-02-23T10:27:23;8.32;;;2.35;;
52041;SDS011;38052;45.944;13.624;2024-02-23T10:29:49;3.63;;;2.30;;
52041;SDS011;38052;45.944;13.624;2024-02-23T10:32:15;7.90;;;2.78;;
52041;SDS011;38052;45.944;13.624;2024-02-23T10:34:45;5.07;;;1.92;;
52041;SDS011;38052;45.944;13.624;2024-02-23T10:37:15;6.22;;;2.20;;
52041;SDS011;38052;45.944;13.624;2024-02-23T10:39:42;9.98;;;2.53;;
52041;SDS011;38052;45.944;13.624;2024-02-23T10:42:09;7.68;;;2.22;;
52041;SDS011;38052;45.944;13.624;2024-02-23T10:44:37;4.38;;;2.00;;
52041;SDS011;38052;45.944;13.624;2024-02-23T10:47:05;8.52;;;3.38;;
52041;SDS011;38052;45.944;13.624;2024-02-23T10:49:33;5.45;;;2.25;;
52041;SDS011;38052;45.944;13.624;2024-02-23T10:52:00;8.80;;;2.42;;
52041;SDS011;38052;45.944;13.624;2024-02-23T10:54:27;5.82;;;2.35;;
52041;SDS011;38052;45.944;13.624;2024-02-23T10:56:54;13.85;;;3.15;;
52041;SDS011;38052;45.944;13.624;2024-02-23T10:59:20;4.88;;;2.38;;
52041;SDS011;38052;45.944;13.624;2024-02-23T11:01:51;6.38;;;1.65;;
52041;SDS011;38052;45.944;13.624;2024-02-23T11:04:17;7.47;;;2.13;;
52041;SDS011;38052;45.944;13.624;2024-02-23T11:06:51;8.15;;;2.70;;
52041;SDS011;38052;45.944;13.624;2024-02-23T11:09:20;5.20;;;2.35;;
52041;SDS011;38052;45.944;13.624;2024-02-23T11:14:29;8.07;;;3.08;;
52041;SDS011;38052;45.944;13.624;2024-02-23T11:16:55;6.05;;;2.92;;
52041;SDS011;38052;45.944;13.624;2024-02-23T11:19:22;8.75;;;2.58;;
52041;SDS011;38052;45.944;13.624;2024-02-23T11:21:58;9.25;;;3.03;;
52041;SDS011;38052;45.944;13.624;2024-02-23T11:24:25;9.95;;;3.30;;
52041;SDS011;38052;45.944;13.624;2024-02-23T11:26:56;8.05;;;2.92;;
52041;SDS011;38052;45.944;13.624;2024-02-23T11:29:22;8.30;;;4.13;;
52041;SDS011;38052;45.944;13.624;2024-02-23T11:31:52;21.35;;;4.47;;
52041;SDS011;38052;45.944;13.624;2024-02-23T11:34:22;6.03;;;3.47;;
52041;SDS011;38052;45.944;13.624;2024-02-23T11:36:52;11.23;;;4.78;;
52041;SDS011;38052;45.944;13.624;2024-02-23T11:39:19;18.23;;;4.03;;
52041;SDS011;38052;45.944;13.624;2024-02-23T11:41:49;7.68;;;3.67;;
52041;SDS011;38052;45.944;13.624;2024-02-23T11:44:15;9.85;;;3.05;;
52041;SDS011;38052;45.944;13.624;2024-02-23T11:46:43;10.80;;;3.58;;
52041;SDS011;38052;45.944;13.624;2024-02-23T11:49:14;8.13;;;4.03;;
52041;SDS011;38052;45.944;13.624;2024-02-23T11:51:41;9.75;;;3.50;;
52041;SDS011;38052;45.944;13.624;2024-02-23T11:54:08;7.25;;;4.03;;
52041;SDS011;38052;45.944;13.624;2024-02-23T11:56:34;14.02;;;4.55;;
52041;SDS011;38052;45.944;13.624;2024-02-23T11:59:01;10.10;;;4.03;;
52041;SDS011;38052;45.944;13.624;2024-02-23T12:01:30;8.82;;;3.40;;
52041;SDS011;38052;45.944;13.624;2024-02-23T12:03:57;8.43;;;3.55;;
52041;SDS011;38052;45.944;13.624;2024-02-23T12:06:23;16.10;;;4.38;;
52041;SDS011;38052;45.944;13.624;2024-02-23T12:08:54;9.13;;;4.47;;
52041;SDS011;38052;45.944;13.624;2024-02-23T12:11:20;7.32;;;4.45;;
52041;SDS011;38052;45.944;13.624;2024-02-23T12:13:47;14.07;;;4.50;;
52041;SDS011;38052;45.944;13.624;2024-02-23T12:16:14;12.63;;;4.60;;
52041;SDS011;38052;45.944;13.624;2024-02-23T12:18:40;11.10;;;4.32;;
52041;SDS011;38052;45.944;13.624;2024-02-23T12:21:08;10.82;;;4.18;;
52041;SDS011;38052;45.944;13.624;2024-02-23T12:23:44;10.02;;;4.20;;
52041;SDS011;38052;45.944;13.624;2024-02-23T12:26:12;7.95;;;3.65;;
52041;SDS011;38052;45.944;13.624;2024-02-23T12:28:39;8.13;;;3.50;;
52041;SDS011;38052;45.944;13.624;2024-02-23T12:31:06;9.98;;;3.45;;
52041;SDS011;38052;45.944;13.624;2024-02-23T12:33:32;10.23;;;4.50;;
52041;SDS011;38052;45.944;13.624;2024-02-23T12:36:03;15.25;;;4.97;;
52041;SDS011;38052;45.944;13.624;2024-02-23T12:38:29;13.75;;;4.88;;
52041;SDS011;38052;45.944;13.624;2024-02-23T12:40:56;9.18;;;3.72;;
52041;SDS011;38052;45.944;13.624;2024-02-23T12:43:22;17.50;;;4.55;;
52041;SDS011;38052;45.944;13.624;2024-02-23T12:45:54;12.57;;;4.18;;
52041;SDS011;38052;45.944;13.624;2024-02-23T12:48:20;10.55;;;3.53;;
52041;SDS011;38052;45.944;13.624;2024-02-23T12:50:47;13.68;;;4.38;;
52041;SDS011;38052;45.944;13.624;2024-02-23T12:53:30;11.50;;;4.55;;
52041;SDS011;38052;45.944;13.624;2024-02-23T12:56:00;10.55;;;4.15;;
52041;SDS011;38052;45.944;13.624;2024-02-23T12:58:27;17.02;;;5.28;;
52041;SDS011;38052;45.944;13.624;2024-02-23T13:00:53;14.10;;;5.05;;
52041;SDS011;38052;45.944;13.624;2024-02-23T13:03:20;13.45;;;4.75;;
52041;SDS011;38052;45.944;13.624;2024-02-23T13:05:46;16.55;;;5.05;;
52041;SDS011;38052;45.944;13.624;2024-02-23T13:08:12;7.75;;;4.00;;
52041;SDS011;38052;45.944;13.624;2024-02-23T13:10:39;10.90;;;3.35;;
52041;SDS011;38052;45.944;13.624;2024-02-23T13:13:05;10.98;;;4.40;;
52041;SDS011;38052;45.944;13.624;2024-02-23T13:15:32;10.32;;;3.78;;
52041;SDS011;38052;45.944;13.624;2024-02-23T13:17:59;10.95;;;4.45;;
52041;SDS011;38052;45.944;13.624;2024-02-23T13:20:27;19.60;;;4.28;;
52041;SDS011;38052;45.944;13.624;2024-02-23T13:22:54;11.40;;;3.88;;
52041;SDS011;38052;45.944;13.624;2024-02-23T13:25:21;11.45;;;4.65;;
52041;SDS011;38052;45.944;13.624;2024-02-23T13:27:47;9.40;;;3.95;;
52041;SDS011;38052;45.944;13.624;2024-02-23T13:30:14;9.60;;;3.70;;
52041;SDS011;38052;45.944;13.624;2024-02-23T13:32:40;9.43;;;4.03;;
52041;SDS011;38052;45.944;13.624;2024-02-23T13:35:07;19.73;;;4.22;;
52041;SDS011;38052;45.944;13.624;2024-02-23T13:37:34;10.68;;;3.55;;
52041;SDS011;38052;45.944;13.624;2024-02-23T13:40:01;13.98;;;3.97;;
52041;SDS011;38052;45.944;13.624;2024-02-23T13:42:28;12.40;;;3.58;;
52041;SDS011;38052;45.944;13.624;2024-02-23T13:44:54;15.82;;;4.50;;
52041;SDS011;38052;45.944;13.624;2024-02-23T13:47:20;13.65;;;4.90;;
52041;SDS011;38052;45.944;13.624;2024-02-23T13:49:47;8.80;;;3.33;;
52041;SDS011;38052;45.944;13.624;2024-02-23T13:52:13;18.63;;;5.72;;
52041;SDS011;38052;45.944;13.624;2024-02-23T13:54:40;11.63;;;4.18;;
52041;SDS011;38052;45.944;13.624;2024-02-23T13:57:08;9.18;;;3.58;;
52041;SDS011;38052;45.944;13.624;2024-02-23T13:59:34;12.25;;;4.18;;
52041;SDS011;38052;45.944;13.624;2024-02-23T14:02:01;11.20;;;3.97;;
52041;SDS011;38052;45.944;13.624;2024-02-23T14:04:28;8.57;;;3.33;;
52041;SDS011;38052;45.944;13.624;2024-02-23T14:06:54;8.40;;;3.38;;
52041;SDS011;38052;45.944;13.624;2024-02-23T14:09:20;10.07;;;3.05;;
52041;SDS011;38052;45.944;13.624;2024-02-23T14:11:47;7.60;;;2.92;;
52041;SDS011;38052;45.944;13.624;2024-02-23T14:14:13;11.02;;;3.85;;
52041;SDS011;38052;45.944;13.624;2024-02-23T14:16:40;8.27;;;4.70;;
52041;SDS011;38052;45.944;13.624;2024-02-23T14:19:06;8.52;;;4.10;;
52041;SDS011;38052;45.944;13.624;2024-02-23T14:21:33;8.45;;;3.80;;
52041;SDS011;38052;45.944;13.624;2024-02-23T14:24:03;12.80;;;4.53;;
52041;SDS011;38052;45.944;13.624;2024-02-23T14:26:29;11.50;;;3.45;;
52041;SDS011;38052;45.944;13.624;2024-02-23T14:28:56;9.65;;;4.43;;
52041;SDS011;38052;45.944;13.624;2024-02-23T14:31:23;12.02;;;4.22;;
52041;SDS011;38052;45.944;13.624;2024-02-23T14:33:50;9.48;;;4.65;;